Time;durP1;ratioP1;P1;durP2;ratioP2;P2;SDS_P1;SDS_P2;PMS_P1;PMS_P2;Temp;Humidity;BMP_temperature;BMP_pressure;BME280_temperature;BME280_humidity;BME280_pressure;Samples;Min_cycle;Max_cycle;Signal;HPM_P1;HPM_P2
2023/09/15 00:00:20;;;;;;;6.30;2.50;;;17.60;99.90;;;;;;5090099;28;20031;-82
2023/09/15 00:02:47;;;;;;;4.90;2.40;;;17.50;99.90;;;;;;5086600;28;20027;-85
2023/09/15 00:05:13;;;;;;;3.30;2.67;;;17.50;99.90;;;;;;5070494;28;20021;-84
2023/09/15 00:07:38;;;;;;;3.00;2.50;;;17.50;99.90;;;;;;5071677;28;20021;-87
2023/09/15 00:10:11;;;;;;;5.18;2.60;;;17.40;99.90;;;;;;5069559;28;20042;-86
2023/09/15 00:12:37;;;;;;;5.68;2.45;;;17.40;99.90;;;;;;5070324;28;20108;-86
2023/09/15 00:15:07;;;;;;;4.32;2.40;;;17.40;99.90;;;;;;5071073;28;20035;-87
2023/09/15 00:17:35;;;;;;;3.50;2.65;;;17.40;99.90;;;;;;5088718;28;20454;-85
2023/09/15 00:20:01;;;;;;;4.15;2.70;;;17.40;99.90;;;;;;5091004;28;20387;-87
2023/09/15 00:22:26;;;;;;;4.72;2.50;;;17.40;99.90;;;;;;5089579;28;20028;-87
2023/09/15 00:24:52;;;;;;;3.70;2.45;;;17.40;99.90;;;;;;5090681;28;20036;-88
2023/09/15 00:27:18;;;;;;;4.13;2.40;;;17.30;99.90;;;;;;5090614;28;20103;-88
2023/09/15 00:29:44;;;;;;;4.10;2.65;;;17.30;99.90;;;;;;5089667;28;20097;-84
2023/09/15 00:32:10;;;;;;;6.28;2.35;;;17.30;99.90;;;;;;5089432;28;20055;-86
2023/09/15 00:34:36;;;;;;;3.42;2.30;;;17.30;99.90;;;;;;5090261;28;20391;-87
2023/09/15 00:37:02;;;;;;;7.15;2.88;;;17.30;99.90;;;;;;5090544;28;20124;-86
2023/09/15 00:39:28;;;;;;;7.18;2.40;;;17.30;99.90;;;;;;5089386;28;20460;-87
2023/09/15 00:41:53;;;;;;;5.28;2.40;;;17.30;99.90;;;;;;5087467;28;20116;-86
2023/09/15 00:44:19;;;;;;;3.47;2.50;;;17.30;99.90;;;;;;5090134;28;20600;-85
2023/09/15 00:46:44;;;;;;;5.22;2.58;;;17.30;99.90;;;;;;5090402;28;20026;-87
2023/09/15 00:49:10;;;;;;;6.75;2.90;;;17.30;99.90;;;;;;5090994;28;20020;-86
2023/09/15 00:51:36;;;;;;;2.47;2.25;;;17.30;99.90;;;;;;5089481;28;20039;-84
2023/09/15 00:54:02;;;;;;;3.78;2.40;;;17.30;99.90;;;;;;5088266;28;20658;-86
2023/09/15 00:56:27;;;;;;;2.75;2.33;;;17.30;99.90;;;;;;5089362;28;20475;-86
2023/09/15 00:58:53;;;;;;;3.95;2.33;;;17.30;99.90;;;;;;5089949;28;20035;-87
2023/09/15 01:01:20;;;;;;;5.05;2.72;;;17.30;99.90;;;;;;5087285;28;20028;-84
2023/09/15 01:03:46;;;;;;;5.95;2.65;;;17.30;99.90;;;;;;5090015;28;20024;-90
2023/09/15 01:06:13;;;;;;;3.85;2.55;;;17.40;99.90;;;;;;5090590;28;20039;-88
2023/09/15 01:08:38;;;;;;;3.72;2.60;;;17.40;99.90;;;;;;5091004;28;20043;-86
2023/09/15 01:11:05;;;;;;;8.23;2.60;;;17.40;99.90;;;;;;5081604;28;20476;-86
2023/09/15 01:13:34;;;;;;;5.82;2.95;;;17.40;99.90;;;;;;5069857;28;20027;-86
2023/09/15 01:16:25;;;;;;;3.95;2.60;;;17.50;99.90;;;;;;5068263;28;20033;-84
2023/09/15 01:19:16;;;;;;;5.60;2.75;;;17.50;99.90;;;;;;5069365;28;20091;-89
2023/09/15 01:21:57;;;;;;;8.77;2.55;;;17.50;99.90;;;;;;5069181;28;20032;-86
2023/09/15 01:24:46;;;;;;;4.78;2.67;;;17.40;99.90;;;;;;5072787;28;20178;-87
2023/09/15 01:27:41;;;;;;;3.25;2.25;;;17.50;99.90;;;;;;5090552;28;20424;-83
2023/09/15 01:30:07;;;;;;;7.25;2.45;;;17.40;99.90;;;;;;5088203;28;20048;-83
2023/09/15 01:32:34;;;;;;;3.28;2.67;;;17.40;99.90;;;;;;5089604;28;20020;-86
2023/09/15 01:35:06;;;;;;;5.15;2.63;;;17.40;99.90;;;;;;5089578;28;20105;-84
2023/09/15 01:37:31;;;;;;;8.50;3.05;;;17.30;99.90;;;;;;5087539;28;20028;-83
2023/09/15 01:39:59;;;;;;;5.00;2.58;;;17.30;99.90;;;;;;5089481;28;20031;-87
2023/09/15 01:42:25;;;;;;;5.03;2.90;;;17.30;99.90;;;;;;5088167;28;20140;-88
2023/09/15 01:44:50;;;;;;;4.80;2.92;;;17.30;99.90;;;;;;5089155;28;20040;-84
2023/09/15 01:47:21;;;;;;;8.02;3.08;;;17.30;99.90;;;;;;5088540;28;20033;-84
2023/09/15 01:49:50;;;;;;;5.10;3.10;;;17.10;99.90;;;;;;5089570;28;20020;-87
2023/09/15 01:52:16;;;;;;;7.35;3.25;;;17.20;99.90;;;;;;5088372;28;20036;-81
2023/09/15 01:54:42;;;;;;;3.58;2.70;;;17.20;99.90;;;;;;5090297;28;20479;-86
2023/09/15 01:57:07;;;;;;;4.97;2.70;;;17.30;99.90;;;;;;5089404;28;20067;-86
2023/09/15 01:59:34;;;;;;;7.30;3.05;;;17.30;99.90;;;;;;5089238;28;20058;-82
2023/09/15 02:02:00;;;;;;;4.47;2.70;;;17.40;99.90;;;;;;5088315;28;20032;-84
2023/09/15 02:04:25;;;;;;;4.00;2.65;;;17.40;99.90;;;;;;5089385;28;20028;-83
2023/09/15 02:06:51;;;;;;;4.78;2.60;;;17.40;99.90;;;;;;5091690;28;20077;-88
2023/09/15 02:09:18;;;;;;;5.60;2.80;;;17.40;99.90;;;;;;5091921;28;20052;-86
2023/09/15 02:11:43;;;;;;;3.60;2.70;;;17.40;99.90;;;;;;5094319;28;20032;-86
2023/09/15 02:14:09;;;;;;;5.25;2.70;;;17.40;99.90;;;;;;5093297;28;20031;-88
2023/09/15 02:16:35;;;;;;;8.38;2.70;;;17.40;99.90;;;;;;5092072;28;20085;-87
2023/09/15 02:19:01;;;;;;;5.43;2.70;;;17.40;99.90;;;;;;5091362;28;20499;-87
2023/09/15 02:21:26;;;;;;;4.63;2.90;;;17.40;99.90;;;;;;5092243;28;20031;-85
2023/09/15 02:23:52;;;;;;;2.83;2.53;;;17.30;99.90;;;;;;5092297;28;20442;-87
2023/09/15 02:26:17;;;;;;;4.82;2.47;;;17.30;99.90;;;;;;5093135;28;20024;-85
2023/09/15 02:28:43;;;;;;;6.05;2.80;;;17.30;99.90;;;;;;5093826;28;20028;-86
2023/09/15 02:31:09;;;;;;;3.95;2.65;;;17.30;99.90;;;;;;5092789;28;20031;-88
2023/09/15 02:33:35;;;;;;;4.00;2.55;;;17.30;99.90;;;;;;5091900;28;20024;-87
2023/09/15 02:36:01;;;;;;;3.55;2.60;;;17.30;99.90;;;;;;5091817;28;20024;-87
2023/09/15 02:38:27;;;;;;;5.00;2.88;;;17.20;99.90;;;;;;5092008;28;20035;-87
2023/09/15 02:40:52;;;;;;;4.53;3.00;;;17.20;99.90;;;;;;5092792;28;20024;-84
2023/09/15 02:43:18;;;;;;;5.55;2.90;;;17.10;99.90;;;;;;5092925;28;20032;-81
2023/09/15 02:45:43;;;;;;;3.92;2.70;;;17.00;99.90;;;;;;5093215;28;20594;-86
2023/09/15 02:48:09;;;;;;;4.63;2.63;;;17.00;99.90;;;;;;5092760;28;20051;-87
2023/09/15 02:50:39;;;;;;;4.85;2.67;;;16.90;99.90;;;;;;5092710;28;20095;-87
2023/09/15 02:53:05;;;;;;;5.43;2.60;;;16.80;99.90;;;;;;5090105;28;20031;-85
2023/09/15 02:55:30;;;;;;;5.55;2.60;;;16.80;99.90;;;;;;5091345;28;20031;-87
2023/09/15 02:57:56;;;;;;;4.80;2.70;;;16.70;99.90;;;;;;5091236;28;20048;-87
2023/09/15 03:00:22;;;;;;;4.78;2.60;;;16.70;99.90;;;;;;5091131;28;20035;-86
2023/09/15 03:02:48;;;;;;;3.78;2.40;;;16.70;99.90;;;;;;5091872;28;20077;-87
2023/09/15 03:05:13;;;;;;;3.67;2.70;;;16.60;99.90;;;;;;5091129;28;20040;-86
2023/09/15 03:07:39;;;;;;;3.10;2.40;;;16.60;99.90;;;;;;5091307;28;20024;-86
2023/09/15 03:10:14;;;;;;;5.65;3.00;;;16.60;99.90;;;;;;5091259;28;20032;-86
2023/09/15 03:12:40;;;;;;;5.35;2.65;;;16.60;99.90;;;;;;5091991;28;20495;-87
2023/09/15 03:15:08;;;;;;;4.90;2.70;;;16.60;99.90;;;;;;5091998;28;20024;-88
2023/09/15 03:17:34;;;;;;;4.83;2.50;;;16.70;99.90;;;;;;5091725;28;20020;-86
2023/09/15 03:20:00;;;;;;;5.30;2.50;;;16.70;99.90;;;;;;5091040;28;20089;-86
2023/09/15 03:22:27;;;;;;;5.15;2.70;;;16.70;99.90;;;;;;5089353;28;20043;-86
2023/09/15 03:24:56;;;;;;;5.32;2.80;;;16.60;99.90;;;;;;5091750;28;20032;-86
2023/09/15 03:27:21;;;;;;;3.78;2.72;;;16.70;99.90;;;;;;5091825;28;20400;-82
2023/09/15 03:29:47;;;;;;;4.75;2.75;;;16.70;99.90;;;;;;5092727;28;20020;-85
2023/09/15 03:32:13;;;;;;;4.15;2.67;;;16.70;99.90;;;;;;5091955;28;20024;-87
2023/09/15 03:34:38;;;;;;;2.63;2.30;;;16.80;99.90;;;;;;5090363;28;20028;-87
2023/09/15 03:37:04;;;;;;;3.75;2.90;;;16.80;99.90;;;;;;5091844;28;20020;-86
2023/09/15 03:39:30;;;;;;;3.00;2.55;;;16.80;99.90;;;;;;5091681;28;20020;-86
2023/09/15 03:41:56;;;;;;;2.78;2.55;;;16.80;99.90;;;;;;5091683;28;20028;-85
2023/09/15 03:44:22;;;;;;;5.18;2.45;;;16.80;99.90;;;;;;5091763;28;20430;-80
2023/09/15 03:46:48;;;;;;;4.75;2.92;;;16.80;99.90;;;;;;5092331;28;20558;-86
2023/09/15 03:49:13;;;;;;;4.97;2.65;;;16.80;99.90;;;;;;5091515;28;20091;-86
2023/09/15 03:51:39;;;;;;;5.60;2.92;;;16.80;99.90;;;;;;5090564;28;20031;-84
2023/09/15 03:54:04;;;;;;;6.40;2.88;;;16.90;99.90;;;;;;5091086;28;20020;-85
2023/09/15 03:56:31;;;;;;;3.53;2.58;;;16.90;99.90;;;;;;5091383;28;20541;-85
2023/09/15 03:58:58;;;;;;;6.07;2.92;;;16.90;99.90;;;;;;5091282;28;20042;-86
2023/09/15 04:01:24;;;;;;;5.05;2.70;;;16.90;99.90;;;;;;5091213;28;20024;-86
2023/09/15 04:03:50;;;;;;;6.32;2.60;;;16.90;99.90;;;;;;5092131;28;20100;-87
2023/09/15 04:06:18;;;;;;;3.10;2.53;;;16.90;99.90;;;;;;5090102;28;20548;-87
2023/09/15 04:08:46;;;;;;;3.50;2.53;;;16.90;99.90;;;;;;5091242;28;20035;-86
2023/09/15 04:11:12;;;;;;;6.07;2.63;;;16.90;99.90;;;;;;5091063;28;20533;-86
2023/09/15 04:13:37;;;;;;;6.80;2.80;;;16.90;99.90;;;;;;5091291;28;20024;-87
2023/09/15 04:16:04;;;;;;;5.47;2.58;;;16.90;99.90;;;;;;5087399;28;20024;-81
2023/09/15 04:18:31;;;;;;;4.25;2.33;;;16.90;99.90;;;;;;5087642;28;20024;-88
2023/09/15 04:20:57;;;;;;;5.57;2.72;;;17.00;99.90;;;;;;5084601;28;20023;-86
2023/09/15 04:23:23;;;;;;;4.32;2.33;;;16.90;99.90;;;;;;5089220;28;20028;-83
2023/09/15 04:25:49;;;;;;;4.40;2.55;;;16.90;99.90;;;;;;5091187;28;20122;-87
2023/09/15 04:28:15;;;;;;;5.95;2.55;;;17.00;99.90;;;;;;5089997;28;20083;-85
2023/09/15 04:30:40;;;;;;;4.30;2.40;;;17.00;99.90;;;;;;5090355;28;20028;-85
2023/09/15 04:33:06;;;;;;;5.95;3.15;;;17.00;99.90;;;;;;5089183;28;20111;-87
2023/09/15 04:35:31;;;;;;;4.05;2.35;;;17.00;99.90;;;;;;5089231;28;20042;-88
2023/09/15 04:37:58;;;;;;;4.95;2.58;;;17.00;99.90;;;;;;5079000;28;20028;-87
2023/09/15 04:40:25;;;;;;;3.65;2.60;;;17.10;99.90;;;;;;5070994;28;20017;-82
2023/09/15 04:42:50;;;;;;;3.67;2.60;;;17.10;99.90;;;;;;5088962;28;20024;-87
2023/09/15 04:45:16;;;;;;;4.25;2.60;;;17.00;99.90;;;;;;5090235;28;20096;-87
2023/09/15 04:47:41;;;;;;;3.67;2.63;;;17.00;99.90;;;;;;5088958;28;20075;-85
2023/09/15 04:50:08;;;;;;;6.30;2.78;;;17.10;99.90;;;;;;5089584;28;20445;-85
2023/09/15 04:52:34;;;;;;;3.85;2.70;;;17.00;99.90;;;;;;5088205;28;20032;-87
2023/09/15 04:54:59;;;;;;;4.68;2.88;;;17.00;99.90;;;;;;5088426;28;20022;-88
2023/09/15 04:57:25;;;;;;;5.78;2.60;;;17.00;99.90;;;;;;5089900;28;20028;-87
2023/09/15 04:59:54;;;;;;;8.55;2.80;;;17.00;99.90;;;;;;5089137;28;20103;-88
2023/09/15 05:02:24;;;;;;;6.47;3.00;;;17.10;99.90;;;;;;5089417;28;20049;-88
2023/09/15 05:04:52;;;;;;;4.40;2.80;;;17.10;99.90;;;;;;5070238;28;20075;-87
2023/09/15 05:07:18;;;;;;;4.63;2.88;;;17.10;99.90;;;;;;5083694;28;20024;-85
2023/09/15 05:09:44;;;;;;;4.63;2.90;;;17.10;99.90;;;;;;5079840;28;20099;-85
2023/09/15 05:12:09;;;;;;;3.00;2.60;;;17.10;99.90;;;;;;5079988;28;20027;-88
2023/09/15 05:14:35;;;;;;;7.88;3.10;;;17.10;99.90;;;;;;5087803;28;20040;-89
2023/09/15 05:17:00;;;;;;;4.80;2.67;;;17.10;99.90;;;;;;5089106;28;20031;-87
2023/09/15 05:19:26;;;;;;;6.68;2.90;;;17.10;99.90;;;;;;5086216;28;20394;-81
2023/09/15 05:21:52;;;;;;;4.85;2.75;;;17.20;99.90;;;;;;5082851;28;20082;-88
2023/09/15 05:24:18;;;;;;;4.13;2.65;;;17.20;99.90;;;;;;5085649;28;20031;-87
2023/09/15 05:26:43;;;;;;;5.57;2.65;;;17.20;99.90;;;;;;5089577;28;20395;-88
2023/09/15 05:29:09;;;;;;;3.42;2.90;;;17.20;99.90;;;;;;5088322;28;20031;-84
2023/09/15 05:31:34;;;;;;;5.85;2.60;;;17.20;99.90;;;;;;5089147;28;20039;-81
2023/09/15 05:34:00;;;;;;;3.75;2.60;;;17.20;99.90;;;;;;5089091;28;20027;-84
2023/09/15 05:36:26;;;;;;;4.22;2.60;;;17.30;99.90;;;;;;5088398;28;20500;-84
2023/09/15 05:38:52;;;;;;;4.55;2.53;;;17.30;99.90;;;;;;5089010;28;20460;-82
2023/09/15 05:41:17;;;;;;;3.38;2.50;;;17.30;99.90;;;;;;5088864;28;20545;-86
2023/09/15 05:43:43;;;;;;;3.35;2.70;;;17.30;99.90;;;;;;5088999;28;20104;-85
2023/09/15 05:46:09;;;;;;;5.00;2.85;;;17.40;99.90;;;;;;5087805;28;20036;-85
2023/09/15 05:48:35;;;;;;;6.78;2.80;;;17.40;99.90;;;;;;5082849;28;20385;-86
2023/09/15 05:51:03;;;;;;;5.03;2.50;;;17.50;99.90;;;;;;5069255;28;20071;-85
2023/09/15 05:53:31;;;;;;;4.55;2.58;;;17.50;99.90;;;;;;5088390;28;20024;-85
2023/09/15 05:55:57;;;;;;;5.65;2.70;;;17.50;99.90;;;;;;5089090;28;20422;-83
2023/09/15 05:58:23;;;;;;;7.30;2.80;;;17.50;99.90;;;;;;5084370;28;20044;-85
2023/09/15 06:00:55;;;;;;;3.63;2.58;;;17.60;99.90;;;;;;5079000;28;20027;-83
2023/09/15 06:03:25;;;;;;;4.72;2.83;;;17.50;99.90;;;;;;5073266;28;20032;-86
2023/09/15 06:05:50;;;;;;;5.50;3.00;;;17.60;99.90;;;;;;5086756;28;20035;-86
2023/09/15 06:08:19;;;;;;;4.00;2.70;;;17.60;99.90;;;;;;5087692;28;20024;-85
2023/09/15 06:10:46;;;;;;;7.28;2.70;;;17.60;99.90;;;;;;5087762;28;20024;-86
2023/09/15 06:13:11;;;;;;;4.97;2.53;;;17.60;99.90;;;;;;5087937;28;20024;-83
2023/09/15 06:15:37;;;;;;;5.13;2.72;;;17.70;99.90;;;;;;5086876;28;20043;-86
2023/09/15 06:18:03;;;;;;;6.22;2.40;;;17.70;99.90;;;;;;5086873;28;20139;-85
2023/09/15 06:20:33;;;;;;;7.25;2.60;;;17.70;99.90;;;;;;5087897;28;20375;-83
2023/09/15 06:22:59;;;;;;;4.35;2.70;;;17.70;99.90;;;;;;5078994;28;20035;-84
2023/09/15 06:25:25;;;;;;;4.07;2.70;;;17.70;99.90;;;;;;5087314;28;20557;-85
2023/09/15 06:27:51;;;;;;;6.13;2.70;;;17.70;99.90;;;;;;5087162;28;20025;-85
2023/09/15 06:30:16;;;;;;;3.88;2.47;;;17.70;99.90;;;;;;5087112;28;20022;-85
2023/09/15 06:32:42;;;;;;;3.85;2.63;;;17.70;99.90;;;;;;5087366;28;20491;-86
2023/09/15 06:35:13;;;;;;;5.20;2.63;;;17.70;99.90;;;;;;5087325;28;20028;-85
2023/09/15 06:37:39;;;;;;;4.30;2.60;;;17.80;99.90;;;;;;5087745;28;20035;-84
2023/09/15 06:40:06;;;;;;;5.43;2.53;;;17.80;99.90;;;;;;5088410;28;20032;-85
2023/09/15 06:42:32;;;;;;;4.72;2.83;;;17.80;99.90;;;;;;5088218;28;20491;-85
2023/09/15 06:44:57;;;;;;;4.82;2.90;;;17.80;99.90;;;;;;5089068;28;20054;-84
2023/09/15 06:47:23;;;;;;;3.20;2.67;;;17.90;99.90;;;;;;5088590;28;20016;-84
2023/09/15 06:49:48;;;;;;;7.20;3.17;;;17.90;99.90;;;;;;5088583;28;20140;-85
2023/09/15 06:52:14;;;;;;;3.80;2.60;;;18.00;99.90;;;;;;5088282;28;20024;-84
2023/09/15 06:54:39;;;;;;;6.78;2.90;;;18.10;99.90;;;;;;5073808;28;20190;-86
2023/09/15 06:57:05;;;;;;;5.40;2.60;;;18.10;99.90;;;;;;5071660;28;20024;-83
2023/09/15 06:59:31;;;;;;;5.03;2.50;;;18.20;99.90;;;;;;5072069;28;20032;-86
2023/09/15 07:01:59;;;;;;;5.35;3.20;;;18.20;99.90;;;;;;5071560;28;20405;-85
2023/09/15 07:04:27;;;;;;;6.38;2.80;;;18.30;99.90;;;;;;5089658;28;20120;-84
2023/09/15 07:06:54;;;;;;;5.38;2.97;;;18.30;99.90;;;;;;5075520;28;20036;-85
2023/09/15 07:09:19;;;;;;;3.13;2.47;;;18.40;99.90;;;;;;5071640;28;20154;-85
2023/09/15 07:11:45;;;;;;;5.78;3.22;;;18.40;99.90;;;;;;5074121;28;20107;-82
2023/09/15 07:14:10;;;;;;;6.30;3.35;;;18.50;99.90;;;;;;5091821;28;20028;-82
2023/09/15 07:16:36;;;;;;;3.95;2.65;;;18.50;99.90;;;;;;5089859;28;20020;-86
2023/09/15 07:19:02;;;;;;;6.22;2.95;;;18.60;99.90;;;;;;5071718;28;20427;-82
2023/09/15 07:21:28;;;;;;;5.82;2.75;;;18.70;99.90;;;;;;5072739;28;20033;-85
2023/09/15 07:23:55;;;;;;;4.38;2.63;;;18.70;99.90;;;;;;5087379;28;20408;-82
2023/09/15 07:26:21;;;;;;;5.78;2.90;;;18.80;99.90;;;;;;5088481;28;20402;-84
2023/09/15 07:28:47;;;;;;;4.78;2.67;;;18.90;99.90;;;;;;5073152;28;20443;-86
2023/09/15 07:31:15;;;;;;;3.58;2.70;;;19.00;99.90;;;;;;5076148;28;20028;-86
2023/09/15 07:33:43;;;;;;;6.05;2.95;;;19.00;99.90;;;;;;5091332;28;20058;-84
2023/09/15 07:36:09;;;;;;;4.32;2.50;;;19.00;99.90;;;;;;5091538;28;20445;-85
2023/09/15 07:38:35;;;;;;;4.05;3.00;;;19.10;99.90;;;;;;5090043;28;20020;-84
2023/09/15 07:41:01;;;;;;;6.47;2.65;;;19.10;99.90;;;;;;5092096;28;20099;-85
2023/09/15 07:43:26;;;;;;;7.10;2.40;;;19.20;99.90;;;;;;5091147;28;20387;-86
2023/09/15 07:45:52;;;;;;;5.55;2.80;;;19.30;99.90;;;;;;5089766;28;20130;-85
2023/09/15 07:48:18;;;;;;;4.75;2.80;;;19.40;99.90;;;;;;5091083;28;20133;-85
2023/09/15 07:50:43;;;;;;;5.88;2.72;;;19.50;99.90;;;;;;5091242;28;20028;-85
2023/09/15 07:53:09;;;;;;;6.40;2.60;;;19.60;99.90;;;;;;5091120;28;20017;-86
2023/09/15 07:55:35;;;;;;;6.13;2.78;;;19.80;99.90;;;;;;5089441;28;20077;-85
2023/09/15 07:58:01;;;;;;;3.38;2.40;;;19.80;99.90;;;;;;5092016;28;20020;-86
2023/09/15 08:00:26;;;;;;;6.40;2.58;;;19.90;99.90;;;;;;5090012;28;20093;-85
2023/09/15 08:02:52;;;;;;;5.78;2.58;;;20.00;99.90;;;;;;5090054;28;20028;-85
2023/09/15 08:05:17;;;;;;;6.10;2.50;;;20.00;99.90;;;;;;5078513;28;20036;-87
2023/09/15 08:07:44;;;;;;;3.97;2.58;;;20.10;99.90;;;;;;5072763;28;20036;-82
2023/09/15 08:10:11;;;;;;;3.72;2.72;;;20.20;99.90;;;;;;5086909;28;20430;-82
2023/09/15 08:12:37;;;;;;;4.65;2.72;;;20.30;99.90;;;;;;5084256;28;20028;-82
2023/09/15 08:15:06;;;;;;;5.70;2.40;;;20.40;99.90;;;;;;5071267;28;20032;-83
2023/09/15 08:17:32;;;;;;;8.38;2.97;;;20.40;99.90;;;;;;5083618;28;20546;-85
2023/09/15 08:19:58;;;;;;;5.88;2.92;;;20.50;99.90;;;;;;5086509;28;20110;-82
2023/09/15 08:22:25;;;;;;;5.10;2.40;;;20.50;99.90;;;;;;5081282;28;20031;-82
2023/09/15 08:24:51;;;;;;;3.40;2.47;;;20.60;99.90;;;;;;5069620;28;20028;-82
2023/09/15 08:27:18;;;;;;;6.28;2.53;;;20.70;99.90;;;;;;5086817;28;20028;-85
2023/09/15 08:29:43;;;;;;;6.82;2.70;;;20.80;99.90;;;;;;5089458;28;20024;-84
2023/09/15 08:32:10;;;;;;;5.47;2.60;;;20.80;99.90;;;;;;5088729;28;20046;-87
2023/09/15 08:34:36;;;;;;;5.38;2.50;;;20.90;99.90;;;;;;5089427;28;20100;-82
2023/09/15 08:37:03;;;;;;;6.05;2.92;;;21.00;99.90;;;;;;5088808;28;20032;-82
2023/09/15 08:39:28;;;;;;;8.95;2.58;;;21.10;99.90;;;;;;5089958;28;20027;-83
2023/09/15 08:42:01;;;;;;;7.43;3.08;;;21.20;99.90;;;;;;5090217;28;20028;-86
2023/09/15 08:44:30;;;;;;;7.07;2.80;;;21.30;99.90;;;;;;5090085;28;20252;-87
2023/09/15 08:46:56;;;;;;;4.20;2.33;;;21.40;99.90;;;;;;5089868;28;20032;-85
2023/09/15 08:49:24;;;;;;;8.45;2.95;;;21.50;99.90;;;;;;5071890;28;20024;-82
2023/09/15 08:51:51;;;;;;;6.87;2.47;;;21.60;99.90;;;;;;5088335;28;20118;-85
2023/09/15 08:54:17;;;;;;;4.28;2.60;;;21.70;99.90;;;;;;5069682;28;20376;-85
2023/09/15 08:56:44;;;;;;;8.57;3.00;;;21.80;99.90;;;;;;5069300;28;20038;-85
2023/09/15 08:59:10;;;;;;;4.38;2.72;;;21.80;99.90;;;;;;5068160;28;20029;-83
2023/09/15 09:01:36;;;;;;;5.25;2.65;;;22.00;99.90;;;;;;5070461;28;20032;-86
2023/09/15 09:04:03;;;;;;;5.75;2.30;;;22.00;99.90;;;;;;5069356;28;20519;-82
2023/09/15 09:06:32;;;;;;;7.40;2.60;;;22.00;99.90;;;;;;5068080;28;20043;-86
2023/09/15 09:08:58;;;;;;;7.32;2.65;;;22.10;99.90;;;;;;5071691;28;20021;-83
2023/09/15 09:11:24;;;;;;;3.88;2.58;;;22.20;99.90;;;;;;5088427;28;20487;-85
2023/09/15 09:13:51;;;;;;;5.38;2.72;;;22.30;99.90;;;;;;5089595;28;20031;-84
2023/09/15 09:16:18;;;;;;;5.67;2.43;;;22.40;99.90;;;;;;5089206;28;20016;-84
2023/09/15 09:18:57;;;;;;;4.32;2.55;;;22.50;99.90;;;;;;5088650;28;20522;-83
2023/09/15 09:21:24;;;;;;;3.80;2.30;;;22.60;99.90;;;;;;5088416;28;20140;-83
2023/09/15 09:23:50;;;;;;;6.20;2.67;;;22.70;99.90;;;;;;5087561;28;20115;-83
2023/09/15 09:26:15;;;;;;;7.45;2.45;;;22.70;99.90;;;;;;5088508;28;20152;-85
2023/09/15 09:28:41;;;;;;;6.05;2.75;;;22.80;99.90;;;;;;5078653;28;20043;-85
2023/09/15 09:31:09;;;;;;;4.43;2.35;;;22.90;99.90;;;;;;5077367;28;20101;-85
2023/09/15 09:33:37;;;;;;;4.97;2.30;;;23.00;99.90;;;;;;5069881;28;20472;-86
2023/09/15 09:36:13;;;;;;;5.68;2.25;;;23.10;99.90;;;;;;5068600;28;20496;-85
2023/09/15 09:38:44;;;;;;;3.90;2.20;;;23.20;99.90;;;;;;5081186;28;20479;-85
2023/09/15 09:41:10;;;;;;;4.05;2.10;;;23.30;99.90;;;;;;5088028;28;20042;-85
2023/09/15 09:43:42;;;;;;;4.05;2.17;;;23.40;99.90;;;;;;5089974;28;20024;-86
2023/09/15 09:46:08;;;;;;;5.72;2.10;;;23.40;99.90;;;;;;5088997;28;20036;-85
2023/09/15 09:48:35;;;;;;;4.30;2.10;;;23.50;99.90;;;;;;5089142;28;20013;-86
2023/09/15 09:51:02;;;;;;;5.07;2.13;;;23.60;99.90;;;;;;5077928;28;20097;-85
2023/09/15 09:53:29;;;;;;;4.43;2.10;;;23.60;99.90;;;;;;5079512;28;20383;-84
2023/09/15 09:55:56;;;;;;;7.03;2.30;;;23.70;99.90;;;;;;5068915;28;20285;-86
2023/09/15 09:58:23;;;;;;;5.50;2.42;;;23.70;99.90;;;;;;5067384;28;20111;-84
2023/09/15 10:00:52;;;;;;;3.70;2.40;;;23.80;99.90;;;;;;5086670;28;20111;-86
2023/09/15 10:03:18;;;;;;;3.08;1.83;;;23.90;99.90;;;;;;5085265;28;20032;-83
2023/09/15 10:05:44;;;;;;;3.80;2.10;;;24.00;99.90;;;;;;5068608;28;20036;-85
2023/09/15 10:08:10;;;;;;;5.78;2.03;;;24.00;99.90;;;;;;5067850;28;20090;-84
2023/09/15 10:10:41;;;;;;;4.80;2.22;;;24.10;99.90;;;;;;5084749;28;20557;-86
2023/09/15 10:13:08;;;;;;;7.75;4.38;;;24.20;99.90;;;;;;5076925;28;20073;-83
2023/09/15 10:15:39;;;;;;;3.25;1.83;;;24.20;99.90;;;;;;5087998;28;20518;-83
2023/09/15 10:18:06;;;;;;;6.72;2.40;;;24.20;99.90;;;;;;5084932;28;20063;-83
2023/09/15 10:20:33;;;;;;;3.25;2.40;;;24.20;99.90;;;;;;5086593;28;20264;-86
2023/09/15 10:22:59;;;;;;;3.55;2.28;;;24.30;99.90;;;;;;5087858;28;20020;-83
2023/09/15 10:25:25;;;;;;;5.82;2.05;;;24.30;99.90;;;;;;5083567;28;20036;-85
2023/09/15 10:27:50;;;;;;;3.42;2.30;;;24.40;99.90;;;;;;5073334;28;20503;-82
2023/09/15 10:30:16;;;;;;;4.07;2.50;;;24.50;99.90;;;;;;5077254;28;20074;-82
2023/09/15 10:32:43;;;;;;;3.90;2.33;;;24.40;99.90;;;;;;5092929;28;20016;-83
2023/09/15 10:35:10;;;;;;;3.67;2.23;;;24.60;99.90;;;;;;5080678;28;20078;-84
2023/09/15 10:37:42;;;;;;;2.88;2.03;;;24.60;99.90;;;;;;5086710;28;20270;-84
2023/09/15 10:40:08;;;;;;;3.47;2.35;;;24.80;99.90;;;;;;5090838;28;20020;-82
2023/09/15 10:42:35;;;;;;;4.80;2.00;;;24.80;99.90;;;;;;5092183;28;20620;-82
2023/09/15 10:45:13;;;;;;;3.17;2.17;;;24.80;99.90;;;;;;5091991;28;20578;-86
2023/09/15 10:47:38;;;;;;;3.22;2.25;;;24.90;99.90;;;;;;5092323;28;20065;-83
2023/09/15 10:50:05;;;;;;;4.75;2.00;;;24.90;99.90;;;;;;5092095;28;20035;-82
2023/09/15 10:52:35;;;;;;;6.53;2.33;;;24.90;99.90;;;;;;5090889;28;20534;-84
2023/09/15 10:55:02;;;;;;;5.03;2.22;;;25.00;99.90;;;;;;5090900;28;20404;-82
2023/09/15 10:57:28;;;;;;;2.50;2.00;;;25.00;99.90;;;;;;5092082;28;20021;-82
2023/09/15 10:59:55;;;;;;;5.07;2.20;;;25.00;99.90;;;;;;5092021;28;20471;-83
2023/09/15 11:02:21;;;;;;;8.52;2.15;;;25.10;99.90;;;;;;5088566;28;20027;-82
2023/09/15 11:04:48;;;;;;;3.25;2.22;;;25.20;99.90;;;;;;5090510;28;20020;-85
2023/09/15 11:07:16;;;;;;;2.10;1.88;;;25.20;99.90;;;;;;5074214;28;20109;-86
2023/09/15 11:09:42;;;;;;;8.93;2.40;;;25.20;99.90;;;;;;5081051;28;20023;-83
2023/09/15 11:12:10;;;;;;;2.42;2.22;;;25.30;99.90;;;;;;5090751;28;20040;-86
2023/09/15 11:14:36;;;;;;;7.13;2.47;;;25.30;99.90;;;;;;5080884;28;20444;-85
2023/09/15 11:17:03;;;;;;;6.32;2.50;;;25.40;99.90;;;;;;5080458;28;20112;-86
2023/09/15 11:19:30;;;;;;;5.60;2.58;;;25.30;99.90;;;;;;5084413;28;20503;-86
2023/09/15 11:21:57;;;;;;;7.03;3.38;;;25.40;99.90;;;;;;5090355;28;20418;-85
2023/09/15 11:24:22;;;;;;;6.07;2.88;;;25.50;99.90;;;;;;5071214;28;20032;-86
2023/09/15 11:26:50;;;;;;;3.83;2.55;;;25.50;99.90;;;;;;5075230;28;20028;-84
2023/09/15 11:29:16;;;;;;;6.38;2.70;;;25.50;99.90;;;;;;5089477;28;20027;-86
2023/09/15 11:31:44;;;;;;;3.67;2.10;;;25.50;99.90;;;;;;5085789;28;20032;-83
2023/09/15 11:34:14;;;;;;;5.20;2.50;;;25.50;99.90;;;;;;5087108;28;20514;-83
2023/09/15 11:36:41;;;;;;;4.07;2.60;;;25.30;99.90;;;;;;5088891;28;20020;-85
2023/09/15 11:39:12;;;;;;;4.33;2.43;;;25.30;99.90;;;;;;5089500;28;20267;-85
2023/09/15 11:41:39;;;;;;;2.90;2.10;;;25.30;99.90;;;;;;5083725;28;20070;-85
2023/09/15 11:44:08;;;;;;;8.48;2.63;;;25.30;99.90;;;;;;5086589;28;20051;-86
2023/09/15 11:46:39;;;;;;;8.13;2.20;;;25.30;99.90;;;;;;5086334;28;20109;-86
2023/09/15 11:49:05;;;;;;;3.42;2.25;;;25.40;99.90;;;;;;5070512;28;20025;-87
2023/09/15 11:51:31;;;;;;;4.70;2.47;;;25.40;99.90;;;;;;5081975;28;20024;-86
2023/09/15 11:53:58;;;;;;;2.72;2.20;;;25.40;99.90;;;;;;5077503;28;20070;-84
2023/09/15 11:56:26;;;;;;;5.30;2.47;;;25.50;99.90;;;;;;5084796;28;20021;-87
2023/09/15 11:58:51;;;;;;;3.03;2.30;;;25.40;99.90;;;;;;5085273;28;20033;-84
2023/09/15 12:01:18;;;;;;;4.25;2.20;;;25.50;99.90;;;;;;5079748;28;20031;-83
2023/09/15 12:03:47;;;;;;;4.85;2.20;;;25.50;99.90;;;;;;5075662;28;20028;-86
2023/09/15 12:06:16;;;;;;;7.43;2.60;;;25.60;99.90;;;;;;5089391;28;20071;-84
2023/09/15 12:08:42;;;;;;;5.95;2.15;;;25.50;99.90;;;;;;5089162;28;20074;-86
2023/09/15 12:11:11;;;;;;;9.23;2.42;;;25.50;99.90;;;;;;5089506;28;20035;-85
2023/09/15 12:13:37;;;;;;;10.95;4.22;;;25.50;99.90;;;;;;5090747;28;20490;-86
2023/09/15 12:16:04;;;;;;;6.10;2.10;;;25.60;99.90;;;;;;5089589;28;20059;-86
2023/09/15 12:18:35;;;;;;;5.97;2.37;;;25.60;99.90;;;;;;5087882;28;20024;-83
2023/09/15 12:21:00;;;;;;;6.70;2.40;;;25.60;99.90;;;;;;5090653;28;20296;-85
2023/09/15 12:23:28;;;;;;;9.55;2.30;;;25.60;99.90;;;;;;5076006;28;20016;-86
2023/09/15 12:25:53;;;;;;;;;;;25.60;99.90;;;;;;5086318;28;20055;-86
2023/09/15 12:28:19;;;;;;;6.60;2.20;;;25.60;99.90;;;;;;5070227;28;19909;-83
2023/09/15 12:30:48;;;;;;;59.22;4.45;;;25.50;99.90;;;;;;5081810;28;20028;-86
2023/09/15 12:33:18;;;;;;;84.57;7.93;;;25.60;99.90;;;;;;5084881;28;20028;-83
2023/09/15 12:35:48;;;;;;;45.25;4.10;;;25.70;99.90;;;;;;5073652;28;20039;-85
2023/09/15 12:38:17;;;;;;;21.60;3.47;;;25.80;99.90;;;;;;5090727;28;20039;-85
2023/09/15 12:40:47;;;;;;;4.57;2.25;;;25.80;99.90;;;;;;5090200;28;20490;-87
2023/09/15 12:43:13;;;;;;;5.10;2.08;;;25.90;99.90;;;;;;5090358;28;20062;-86
2023/09/15 12:45:39;;;;;;;5.65;2.50;;;25.90;99.90;;;;;;5089712;28;20036;-85